Time;durP1;ratioP1;P1;durP2;ratioP2;P2;SDS_P1;SDS_P2;PMS_P1;PMS_P2;Temp;Humidity;BMP_temperature;BMP_pressure;BME280_temperature;BME280_humidity;BME280_pressure;Samples;Min_cycle;Max_cycle;Signal;HPM_P1;HPM_P2
2023/04/26 05:08:30;;;;;;;0.00;0.00;;;;;;;;;;5132907;24;20146;-58
2023/04/26 05:10:56;;;;;;;0.00;0.00;;;;;;;;;;4804927;29;20037;-77
2023/04/26 05:13:22;;;;;;;0.00;0.00;;;;;;;;;;4810555;29;20030;-60
2023/04/26 05:15:48;;;;;;;0.00;0.00;;;;;;;;;;4795425;29;20031;-59
2023/04/26 05:18:14;;;;;;;0.00;0.00;;;;;;;;;;4789373;29;20213;-71
2023/04/26 05:20:40;;;;;;;0.00;0.00;;;;;;;;;;4787066;30;20032;-61
2023/04/26 05:23:06;;;;;;;0.00;0.00;;;;;;;;;;4786561;30;20047;-61
2023/04/26 05:25:36;;;;;;;0.00;0.00;;;;;;;;;;4786732;30;20106;-75
2023/04/26 05:28:02;;;;;;;0.00;0.00;;;;;;;;;;4770579;30;20126;-62
2023/04/26 05:30:28;;;;;;;0.00;0.00;;;;;;;;;;4786410;30;20531;-62
2023/04/26 05:32:55;;;;;;;0.00;0.00;;;;;;;;;;4770898;30;20389;-61
2023/04/26 05:35:21;;;;;;;0.00;0.00;;;;;;;;;;4770345;30;20457;-61
2023/04/26 05:37:47;;;;;;;0.00;0.00;;;;;;;;;;4786435;30;20396;-80
2023/04/26 05:40:14;;;;;;;0.00;0.00;;;;;;;;;;4786320;30;20039;-73
2023/04/26 05:42:40;;;;;;;0.00;0.00;;;;;;;;;;4785849;30;20039;-70
2023/04/26 05:45:07;;;;;;;0.00;0.00;;;;;;;;;;4786215;30;20039;-65
2023/04/26 05:47:33;;;;;;;0.00;0.00;;;;;;;;;;4786028;30;20497;-77
2023/04/26 05:49:59;;;;;;;0.00;0.00;;;;;;;;;;4786218;30;20043;-62
2023/04/26 05:52:25;;;;;;;0.00;0.00;;;;;;;;;;4786029;30;20514;-62
2023/04/26 05:54:51;;;;;;;0.00;0.00;;;;;;;;;;4785207;29;20032;-85
2023/04/26 05:57:18;;;;;;;0.00;0.00;;;;;;;;;;4786352;30;20115;-84
2023/04/26 05:59:44;;;;;;;0.00;0.00;;;;;;;;;;4786172;30;20027;-69
2023/04/26 06:02:10;;;;;;;0.00;0.00;;;;;;;;;;4785623;30;20053;-72
2023/04/26 06:04:36;;;;;;;0.00;0.00;;;;;;;;;;4769354;30;20130;-61
2023/04/26 06:07:03;;;;;;;0.00;0.00;;;;;;;;;;4786142;30;20071;-62
2023/04/26 06:09:31;;;;;;;0.00;0.00;;;;;;;;;;4757832;30;20142;-64
2023/04/26 06:11:57;;;;;;;0.00;0.00;;;;;;;;;;4768258;30;20038;-83
2023/04/26 06:14:23;;;;;;;0.00;0.00;;;;;;;;;;4776507;30;20114;-89
2023/04/26 06:16:49;;;;;;;0.00;0.00;;;;;;;;;;4775566;30;20105;-83
2023/04/26 06:19:15;;;;;;;0.00;0.00;;;;;;;;;;4777204;30;20496;-67
2023/04/26 06:21:41;;;;;;;0.00;0.00;;;;;;;;;;4775904;30;20044;-60
2023/04/26 06:24:07;;;;;;;0.00;0.00;;;;;;;;;;4782752;30;20043;-61
2023/04/26 06:26:33;;;;;;;0.00;0.00;;;;;;;;;;4771953;30;20046;-61
2023/04/26 06:28:59;;;;;;;0.00;0.00;;;;;;;;;;4768024;30;20067;-61
2023/04/26 06:31:25;;;;;;;0.00;0.00;;;;;;;;;;4768064;30;20039;-68
2023/04/26 06:33:51;;;;;;;0.00;0.00;;;;;;;;;;4768127;30;20028;-60
2023/04/26 06:36:17;;;;;;;0.00;0.00;;;;;;;;;;4767956;30;20032;-76
2023/04/26 06:38:43;;;;;;;0.00;0.00;;;;;;;;;;4751647;30;20492;-64
2023/04/26 06:41:09;;;;;;;0.00;0.00;;;;;;;;;;4751930;30;20047;-66
2023/04/26 06:43:35;;;;;;;0.00;0.00;;;;;;;;;;4768000;30;20504;-73
2023/04/26 06:46:01;;;;;;;0.00;0.00;;;;;;;;;;4768755;30;20036;-81
2023/04/26 06:48:27;;;;;;;0.00;0.00;;;;;;;;;;4767970;30;20081;-70
2023/04/26 06:50:53;;;;;;;0.00;0.00;;;;;;;;;;4768120;30;20024;-68
2023/04/26 06:53:19;;;;;;;0.00;0.00;;;;;;;;;;4771362;30;20093;-76
2023/04/26 06:55:45;;;;;;;0.00;0.00;;;;;;;;;;4775108;30;20039;-74
2023/04/26 06:58:11;;;;;;;0.00;0.00;;;;;;;;;;4776931;30;20035;-74
2023/04/26 07:00:38;;;;;;;0.00;0.00;;;;;;;;;;4775440;30;20038;-76
2023/04/26 07:03:04;;;;;;;0.00;0.00;;;;;;;;;;4775017;30;20062;-61
2023/04/26 07:05:30;;;;;;;0.00;0.00;;;;;;;;;;4774572;30;20477;-63
2023/04/26 07:07:56;;;;;;;0.00;0.00;;;;;;;;;;4776514;30;20035;-69
2023/04/26 07:10:22;;;;;;;0.00;0.00;;;;;;;;;;4771633;30;20178;-79
2023/04/26 07:12:48;;;;;;;0.00;0.00;;;;;;;;;;4775911;30;20042;-73
2023/04/26 07:15:14;;;;;;;0.00;0.00;;;;;;;;;;4778609;29;20034;-78
2023/04/26 07:17:41;;;;;;;0.00;0.00;;;;;;;;;;4771406;30;20036;-75
2023/04/26 07:20:07;;;;;;;0.00;0.00;;;;;;;;;;4756256;30;20027;-78
2023/04/26 07:22:33;;;;;;;0.00;0.00;;;;;;;;;;4769805;30;20123;-76
2023/04/26 07:25:00;;;;;;;0.00;0.00;;;;;;;;;;4774425;30;20028;-79
2023/04/26 07:27:26;;;;;;;0.00;0.00;;;;;;;;;;4781399;30;20480;-70
2023/04/26 07:29:55;;;;;;;0.00;0.00;;;;;;;;;;4776168;30;20028;-77
2023/04/26 07:32:21;;;;;;;0.00;0.00;;;;;;;;;;4771021;30;20028;-62
2023/04/26 07:34:47;;;;;;;0.00;0.00;;;;;;;;;;4777404;30;20035;-80
2023/04/26 07:37:13;;;;;;;0.00;0.00;;;;;;;;;;4781200;30;20038;-73
2023/04/26 07:39:39;;;;;;;0.00;0.00;;;;;;;;;;4781560;30;20035;-64
2023/04/26 07:42:06;;;;;;;0.00;0.00;;;;;;;;;;4779339;30;20047;-68
2023/04/26 07:44:32;;;;;;;0.00;0.00;;;;;;;;;;4772111;29;20110;-70
2023/04/26 07:46:58;;;;;;;0.00;0.00;;;;;;;;;;4780278;30;20034;-80
2023/04/26 07:49:24;;;;;;;0.00;0.00;;;;;;;;;;4778116;30;20103;-60
2023/04/26 07:51:51;;;;;;;0.00;0.00;;;;;;;;;;4778415;30;20027;-68
2023/04/26 07:54:17;;;;;;;0.00;0.00;;;;;;;;;;4776545;30;20031;-66
2023/04/26 07:56:43;;;;;;;0.00;0.00;;;;;;;;;;4784109;30;20098;-76
2023/04/26 07:59:09;;;;;;;0.00;0.00;;;;;;;;;;4788239;30;20444;-80
2023/04/26 08:01:35;;;;;;;0.00;0.00;;;;;;;;;;4788310;30;20484;-80
2023/04/26 08:04:01;;;;;;;0.00;0.00;;;;;;;;;;4787981;30;20031;-81
2023/04/26 08:06:28;;;;;;;0.00;0.00;;;;;;;;;;4788162;30;20032;-74
2023/04/26 08:08:54;;;;;;;0.00;0.00;;;;;;;;;;4788029;30;20051;-80
2023/04/26 08:11:20;;;;;;;0.00;0.00;;;;;;;;;;4789033;30;20153;-69
2023/04/26 08:13:46;;;;;;;0.00;0.00;;;;;;;;;;4787851;29;20039;-74
2023/04/26 08:16:13;;;;;;;0.00;0.00;;;;;;;;;;4770330;30;20078;-86
2023/04/26 08:18:39;;;;;;;0.00;0.00;;;;;;;;;;4786534;29;20027;-84
2023/04/26 08:21:05;;;;;;;0.00;0.00;;;;;;;;;;4788175;30;20488;-85
2023/04/26 08:23:35;;;;;;;0.00;0.00;;;;;;;;;;4787845;30;20043;-79
2023/04/26 08:26:01;;;;;;;0.00;0.00;;;;;;;;;;4787774;30;20027;-65
2023/04/26 08:28:27;;;;;;;0.00;0.00;;;;;;;;;;4777852;30;20084;-81
2023/04/26 08:30:54;;;;;;;0.00;0.00;;;;;;;;;;4776621;30;20476;-77
2023/04/26 08:33:20;;;;;;;0.00;0.00;;;;;;;;;;4783301;30;20042;-82
2023/04/26 08:35:46;;;;;;;0.00;0.00;;;;;;;;;;4782993;30;20207;-74
2023/04/26 08:38:12;;;;;;;0.00;0.00;;;;;;;;;;4769890;30;20039;-78
2023/04/26 08:40:39;;;;;;;0.00;0.00;;;;;;;;;;4769849;30;20393;-75
2023/04/26 08:43:05;;;;;;;0.00;0.00;;;;;;;;;;4772063;30;20044;-74
2023/04/26 08:45:32;;;;;;;0.00;0.00;;;;;;;;;;4769844;30;20035;-69
2023/04/26 08:48:02;;;;;;;0.00;0.00;;;;;;;;;;4773263;30;20577;-79
2023/04/26 08:50:29;;;;;;;0.00;0.00;;;;;;;;;;4786694;30;20472;-68
2023/04/26 08:52:55;;;;;;;0.00;0.00;;;;;;;;;;4785561;30;20342;-77
2023/04/26 08:55:22;;;;;;;0.00;0.00;;;;;;;;;;4784217;30;20058;-78
2023/04/26 08:57:49;;;;;;;0.00;0.00;;;;;;;;;;4773114;30;20101;-78
2023/04/26 09:00:17;;;;;;;0.00;0.00;;;;;;;;;;4769426;30;20032;-71
2023/04/26 09:02:47;;;;;;;0.00;0.00;;;;;;;;;;4793512;29;20042;-77
2023/04/26 09:05:13;;;;;;;0.00;0.00;;;;;;;;;;4805270;29;20114;-76
2023/04/26 09:07:40;;;;;;;0.00;0.00;;;;;;;;;;4805281;29;20073;-76
2023/04/26 09:10:07;;;;;;;0.00;0.00;;;;;;;;;;4788217;29;20139;-78
2023/04/26 09:12:33;;;;;;;0.00;0.00;;;;;;;;;;4805193;29;20039;-75
2023/04/26 09:15:00;;;;;;;0.00;0.00;;;;;;;;;;4805209;29;20019;-66
2023/04/26 09:17:32;;;;;;;0.00;0.00;;;;;;;;;;4788280;29;20046;-79
2023/04/26 09:20:03;;;;;;;0.00;0.00;;;;;;;;;;4804932;29;20111;-66
2023/04/26 09:22:36;;;;;;;0.00;0.00;;;;;;;;;;4804909;29;20062;-76
2023/04/26 09:25:06;;;;;;;0.00;0.00;;;;;;;;;;4804752;29;20035;-62
2023/04/26 09:27:39;;;;;;;0.00;0.00;;;;;;;;;;4805085;29;20041;-80
2023/04/26 09:30:06;;;;;;;0.00;0.00;;;;;;;;;;4804644;29;20438;-82
2023/04/26 09:32:51;;;;;;;0.00;0.00;;;;;;;;;;4804635;29;20030;-70
2023/04/26 09:35:29;;;;;;;0.00;0.00;;;;;;;;;;4804678;29;20038;-78
2023/04/26 09:38:00;;;;;;;0.00;0.00;;;;;;;;;;4804631;29;20050;-74
2023/04/26 09:40:28;;;;;;;0.00;0.00;;;;;;;;;;4804610;29;20125;-77
2023/04/26 09:43:01;;;;;;;0.00;0.00;;;;;;;;;;4804692;29;20039;-75
2023/04/26 09:45:28;;;;;;;0.00;0.00;;;;;;;;;;4804515;29;20027;-75
2023/04/26 09:47:55;;;;;;;0.00;0.00;;;;;;;;;;4804739;29;20034;-79
2023/04/26 09:50:31;;;;;;;0.00;0.00;;;;;;;;;;4804444;29;20515;-71
2023/04/26 09:52:57;;;;;;;0.00;0.00;;;;;;;;;;4788278;29;20121;-64
2023/04/26 09:55:27;;;;;;;0.00;0.00;;;;;;;;;;4804268;29;20027;-75
2023/04/26 09:57:54;;;;;;;0.00;0.00;;;;;;;;;;4804333;29;20039;-74
2023/04/26 10:00:21;;;;;;;0.00;0.00;;;;;;;;;;4804149;29;20027;-74
2023/04/26 10:02:47;;;;;;;0.00;0.00;;;;;;;;;;4800983;29;20126;-77
2023/04/26 10:05:13;;;;;;;0.00;0.00;;;;;;;;;;4785869;30;20039;-73
2023/04/26 10:07:40;;;;;;;0.00;0.00;;;;;;;;;;4786523;30;20039;-77
2023/04/26 10:10:07;;;;;;;0.00;0.00;;;;;;;;;;4785996;30;20095;-78
2023/04/26 10:12:33;;;;;;;0.00;0.00;;;;;;;;;;4786340;30;20546;-79
2023/04/26 10:15:00;;;;;;;0.00;0.00;;;;;;;;;;4786295;30;20093;-72
2023/04/26 10:17:26;;;;;;;0.00;0.00;;;;;;;;;;4786269;30;20535;-80
2023/04/26 10:19:53;;;;;;;0.00;0.00;;;;;;;;;;4786019;30;20031;-79
2023/04/26 10:22:21;;;;;;;0.00;0.00;;;;;;;;;;4786038;30;20047;-68
2023/04/26 10:24:48;;;;;;;0.00;0.00;;;;;;;;;;4785860;30;20055;-80
2023/04/26 10:27:15;;;;;;;0.00;0.00;;;;;;;;;;4786046;30;20043;-77
2023/04/26 10:29:57;;;;;;;0.00;0.00;;;;;;;;;;4787553;29;20031;-78
2023/04/26 10:32:23;;;;;;;;;;;;;;;;;;4788638;29;20038;-64
2023/04/26 10:35:11;;;;;;;0.00;0.00;;;;;;;;;;4803406;29;19913;-69
2023/04/26 10:37:57;;;;;;;0.00;0.00;;;;;;;;;;4800628;29;20051;-67
2023/04/26 10:40:25;;;;;;;0.00;0.00;;;;;;;;;;4790464;29;20048;-62
2023/04/26 10:42:51;;;;;;;0.00;0.00;;;;;;;;;;4770775;30;20043;-61
2023/04/26 10:45:27;;;;;;;0.00;0.00;;;;;;;;;;4771469;30;20036;-76
2023/04/26 10:48:11;;;;;;;0.00;0.00;;;;;;;;;;4772107;30;20078;-71
2023/04/26 10:50:58;;;;;;;0.00;0.00;;;;;;;;;;4783950;30;20085;-63
2023/04/26 10:53:24;;;;;;;0.00;0.00;;;;;;;;;;4780009;30;20047;-74
2023/04/26 10:55:51;;;;;;;0.00;0.00;;;;;;;;;;4771146;30;20516;-63
2023/04/26 10:58:28;;;;;;;0.00;0.00;;;;;;;;;;4780356;30;20070;-69
2023/04/26 11:01:19;;;;;;;0.00;0.00;;;;;;;;;;4771622;30;20039;-75
2023/04/26 11:03:57;;;;;;;0.00;0.00;;;;;;;;;;4770553;30;20051;-75
2023/04/26 11:06:24;;;;;;;0.00;0.00;;;;;;;;;;4770542;30;20066;-65
2023/04/26 11:08:50;;;;;;;0.00;0.00;;;;;;;;;;4770414;30;20429;-79
2023/04/26 11:11:20;;;;;;;0.00;0.00;;;;;;;;;;4770984;30;20032;-72
2023/04/26 11:13:46;;;;;;;0.00;0.00;;;;;;;;;;4770705;30;20512;-72
2023/04/26 11:16:16;;;;;;;0.00;0.00;;;;;;;;;;4771062;30;20036;-72
2023/04/26 11:18:43;;;;;;;0.00;0.00;;;;;;;;;;4771306;30;20035;-77
2023/04/26 11:21:11;;;;;;;0.00;0.00;;;;;;;;;;4770871;30;20035;-71
2023/04/26 11:23:37;;;;;;;0.00;0.00;;;;;;;;;;4771082;30;20106;-72
2023/04/26 11:26:04;;;;;;;0.00;0.00;;;;;;;;;;4784889;30;20035;-65
2023/04/26 11:28:34;;;;;;;0.00;0.00;;;;;;;;;;4782929;30;20513;-74
2023/04/26 11:31:00;;;;;;;0.00;0.00;;;;;;;;;;4777737;30;20066;-66
2023/04/26 11:33:26;;;;;;;0.00;0.00;;;;;;;;;;4778816;30;20040;-73
2023/04/26 11:35:54;;;;;;;0.00;0.00;;;;;;;;;;4783711;29;20403;-63
2023/04/26 11:38:23;;;;;;;0.00;0.00;;;;;;;;;;4788585;30;20043;-62
2023/04/26 11:40:53;;;;;;;0.00;0.00;;;;;;;;;;4788442;29;20078;-77
2023/04/26 11:43:19;;;;;;;0.00;0.00;;;;;;;;;;4775443;30;20048;-80
2023/04/26 11:45:45;;;;;;;0.00;0.00;;;;;;;;;;4776327;29;20102;-77
2023/04/26 11:48:12;;;;;;;0.00;0.00;;;;;;;;;;4780250;30;20070;-74
2023/04/26 11:50:39;;;;;;;0.00;0.00;;;;;;;;;;4772834;30;20753;-75
2023/04/26 11:53:06;;;;;;;0.00;0.00;;;;;;;;;;4779707;29;20039;-76
2023/04/26 11:55:33;;;;;;;0.00;0.00;;;;;;;;;;4775030;29;20088;-76
2023/04/26 11:58:00;;;;;;;0.00;0.00;;;;;;;;;;4778569;30;20047;-64
2023/04/26 12:00:26;;;;;;;0.00;0.00;;;;;;;;;;4777437;30;20063;-74
2023/04/26 12:02:53;;;;;;;0.00;0.00;;;;;;;;;;4777890;30;20038;-58
2023/04/26 12:05:26;;;;;;;0.00;0.00;;;;;;;;;;4787109;30;20137;-76
2023/04/26 12:07:54;;;;;;;0.00;0.00;;;;;;;;;;4788144;30;20093;-61
2023/04/26 12:10:21;;;;;;;0.00;0.00;;;;;;;;;;4788053;30;20059;-79
2023/04/26 12:12:51;;;;;;;0.00;0.00;;;;;;;;;;4788353;30;20531;-76
2023/04/26 12:15:24;;;;;;;0.00;0.00;;;;;;;;;;4787779;30;20102;-63
2023/04/26 12:17:55;;;;;;;0.00;0.00;;;;;;;;;;4788256;30;20037;-80
2023/04/26 12:20:28;;;;;;;0.00;0.00;;;;;;;;;;4787810;30;20035;-75
2023/04/26 12:23:01;;;;;;;0.00;0.00;;;;;;;;;;4787785;30;20567;-70
2023/04/26 12:25:28;;;;;;;0.00;0.00;;;;;;;;;;4787454;30;20039;-65
2023/04/26 12:27:54;;;;;;;0.00;0.00;;;;;;;;;;4787871;30;20035;-62
2023/04/26 12:30:20;;;;;;;0.00;0.00;;;;;;;;;;4788256;30;20494;-63
2023/04/26 12:32:46;;;;;;;0.00;0.00;;;;;;;;;;4784767;30;20043;-68
2023/04/26 12:35:12;;;;;;;0.00;0.00;;;;;;;;;;4777730;30;20028;-71
2023/04/26 12:37:38;;;;;;;0.00;0.00;;;;;;;;;;4776661;30;20110;-61
2023/04/26 12:40:06;;;;;;;0.00;0.00;;;;;;;;;;4777427;30;20039;-72
2023/04/26 12:42:32;;;;;;;0.00;0.00;;;;;;;;;;4777394;29;20050;-73
2023/04/26 12:44:58;;;;;;;0.00;0.00;;;;;;;;;;4776511;30;20023;-69
2023/04/26 12:47:24;;;;;;;0.00;0.00;;;;;;;;;;4777328;30;20027;-69
2023/04/26 12:49:51;;;;;;;0.00;0.00;;;;;;;;;;4777741;30;20035;-63
2023/04/26 12:52:17;;;;;;;0.00;0.00;;;;;;;;;;4776249;30;20122;-63
2023/04/26 12:54:43;;;;;;;0.00;0.00;;;;;;;;;;4777188;30;20028;-61
2023/04/26 12:57:09;;;;;;;0.00;0.00;;;;;;;;;;4755961;30;20484;-67
2023/04/26 12:59:36;;;;;;;0.00;0.00;;;;;;;;;;4771418;30;20023;-61
2023/04/26 13:02:02;;;;;;;0.00;0.00;;;;;;;;;;4782431;30;20123;-61
2023/04/26 13:04:28;;;;;;;0.00;0.00;;;;;;;;;;4786107;29;20586;-70
2023/04/26 13:06:54;;;;;;;0.00;0.00;;;;;;;;;;4783974;30;20042;-64
2023/04/26 13:09:21;;;;;;;0.00;0.00;;;;;;;;;;4772346;30;20067;-66
2023/04/26 13:11:47;;;;;;;0.00;0.00;;;;;;;;;;4780740;29;20054;-69
2023/04/26 13:14:13;;;;;;;0.00;0.00;;;;;;;;;;4787166;30;20032;-70
2023/04/26 13:16:42;;;;;;;0.00;0.00;;;;;;;;;;4783746;30;20039;-68
2023/04/26 13:19:09;;;;;;;0.00;0.00;;;;;;;;;;4787333;30;20477;-72
2023/04/26 13:21:35;;;;;;;0.00;0.00;;;;;;;;;;4786411;30;20088;-72
2023/04/26 13:24:01;;;;;;;0.00;0.00;;;;;;;;;;4786707;30;20039;-62
2023/04/26 13:26:27;;;;;;;0.00;0.00;;;;;;;;;;4786726;30;20023;-65
2023/04/26 13:28:53;;;;;;;0.00;0.00;;;;;;;;;;4786446;30;20369;-71
2023/04/26 13:31:19;;;;;;;0.00;0.00;;;;;;;;;;4786167;30;20497;-72
2023/04/26 13:33:48;;;;;;;0.00;0.00;;;;;;;;;;4775864;29;20105;-63
2023/04/26 13:36:14;;;;;;;0.00;0.00;;;;;;;;;;4768653;30;20044;-62
2023/04/26 13:38:40;;;;;;;0.00;0.00;;;;;;;;;;4769309;30;20035;-70
2023/04/26 13:41:07;;;;;;;0.00;0.00;;;;;;;;;;4783386;30;20047;-63
2023/04/26 13:43:33;;;;;;;0.00;0.00;;;;;;;;;;4786369;30;20086;-73
2023/04/26 13:45:59;;;;;;;0.00;0.00;;;;;;;;;;4776533;30;20059;-65
2023/04/26 13:48:25;;;;;;;0.00;0.00;;;;;;;;;;4780229;30;20096;-62
2023/04/26 13:50:51;;;;;;;0.00;0.00;;;;;;;;;;4789052;30;20023;-66
2023/04/26 13:53:21;;;;;;;0.00;0.00;;;;;;;;;;4775500;30;20046;-69
2023/04/26 13:55:47;;;;;;;0.00;0.00;;;;;;;;;;4773780;30;20031;-66
2023/04/26 13:58:13;;;;;;;0.00;0.00;;;;;;;;;;4771913;30;20039;-68
2023/04/26 14:00:43;;;;;;;0.00;0.00;;;;;;;;;;4768455;30;20028;-66
2023/04/26 14:03:12;;;;;;;0.00;0.00;;;;;;;;;;4758063;30;20069;-72
2023/04/26 14:05:39;;;;;;;0.00;0.00;;;;;;;;;;4788951;30;20037;-60
2023/04/26 14:08:07;;;;;;;0.00;0.00;;;;;;;;;;4785789;30;20155;-73
2023/04/26 14:10:33;;;;;;;0.00;0.00;;;;;;;;;;4785963;30;20488;-68
2023/04/26 14:12:59;;;;;;;0.00;0.00;;;;;;;;;;4785913;30;20038;-60
2023/04/26 14:15:25;;;;;;;0.00;0.00;;;;;;;;;;4785569;30;20038;-62
2023/04/26 14:17:54;;;;;;;0.00;0.00;;;;;;;;;;4787159;30;20398;-74
2023/04/26 14:20:20;;;;;;;0.00;0.00;;;;;;;;;;4776887;29;20119;-68
2023/04/26 14:22:48;;;;;;;0.00;0.00;;;;;;;;;;4781335;29;20112;-63
2023/04/26 14:25:14;;;;;;;0.00;0.00;;;;;;;;;;4774377;30;20035;-70
2023/04/26 14:27:40;;;;;;;0.00;0.00;;;;;;;;;;4767773;30;20035;-60
2023/04/26 14:30:06;;;;;;;0.00;0.00;;;;;;;;;;4767927;30;20039;-63
2023/04/26 14:32:32;;;;;;;0.00;0.00;;;;;;;;;;4773799;30;20070;-61
2023/04/26 14:34:58;;;;;;;0.00;0.00;;;;;;;;;;4772730;30;20028;-61
2023/04/26 14:37:25;;;;;;;0.00;0.00;;;;;;;;;;4776841;30;20039;-72
2023/04/26 14:39:51;;;;;;;0.00;0.00;;;;;;;;;;4775946;29;20035;-65
2023/04/26 14:42:17;;;;;;;0.00;0.00;;;;;;;;;;4772543;30;20094;-75
2023/04/26 14:44:45;;;;;;;0.00;0.00;;;;;;;;;;4781664;30;20036;-68
2023/04/26 14:47:11;;;;;;;0.00;0.00;;;;;;;;;;4773008;30;20472;-61
2023/04/26 14:49:37;;;;;;;0.00;0.00;;;;;;;;;;4775994;30;20032;-74
2023/04/26 14:52:03;;;;;;;0.00;0.00;;;;;;;;;;4773769;30;20081;-72
2023/04/26 14:54:29;;;;;;;0.00;0.00;;;;;;;;;;4771887;30;20071;-74
2023/04/26 14:56:55;;;;;;;0.00;0.00;;;;;;;;;;4767640;30;20130;-75
2023/04/26 14:59:21;;;;;;;0.00;0.00;;;;;;;;;;4768079;30;20106;-72
2023/04/26 15:01:52;;;;;;;0.00;0.00;;;;;;;;;;4768317;30;20044;-70
2023/04/26 15:04:19;;;;;;;0.00;0.00;;;;;;;;;;4752124;30;20613;-65
2023/04/26 15:06:45;;;;;;;0.00;0.00;;;;;;;;;;4767733;30;20043;-73
2023/04/26 15:09:12;;;;;;;0.00;0.00;;;;;;;;;;4767255;30;20520;-62
2023/04/26 15:11:38;;;;;;;0.00;0.00;;;;;;;;;;4767595;30;20031;-72
2023/04/26 15:14:04;;;;;;;0.00;0.00;;;;;;;;;;4767888;30;20431;-66
2023/04/26 15:16:30;;;;;;;0.00;0.00;;;;;;;;;;4767686;30;20031;-66
2023/04/26 15:18:56;;;;;;;0.00;0.00;;;;;;;;;;4773864;30;20652;-66
2023/04/26 15:21:22;;;;;;;0.00;0.00;;;;;;;;;;4767576;30;20631;-73
2023/04/26 15:23:48;;;;;;;0.00;0.00;;;;;;;;;;4767802;30;20031;-74
2023/04/26 15:26:14;;;;;;;0.00;0.00;;;;;;;;;;4767313;30;20024;-70
2023/04/26 15:28:40;;;;;;;0.00;0.00;;;;;;;;;;4770339;30;20028;-73
2023/04/26 15:31:08;;;;;;;0.00;0.00;;;;;;;;;;4773827;30;20037;-73
2023/04/26 15:33:34;;;;;;;0.00;0.00;;;;;;;;;;4775694;30;20024;-66
2023/04/26 15:36:00;;;;;;;0.00;0.00;;;;;;;;;;4778722;30;20388;-72
2023/04/26 15:38:26;;;;;;;0.00;0.00;;;;;;;;;;4777795;30;20101;-72
2023/04/26 15:40:55;;;;;;;0.00;0.00;;;;;;;;;;4781861;30;20059;-74
2023/04/26 15:43:21;;;;;;;0.00;0.00;;;;;;;;;;4776944;30;20372;-71
2023/04/26 15:45:48;;;;;;;0.00;0.00;;;;;;;;;;4778163;30;20114;-72
2023/04/26 15:48:14;;;;;;;0.00;0.00;;;;;;;;;;4777430;30;20035;-70
2023/04/26 15:50:40;;;;;;;0.00;0.00;;;;;;;;;;4783035;30;20071;-78
2023/04/26 15:53:06;;;;;;;0.00;0.00;;;;;;;;;;4782780;30;20057;-76
2023/04/26 15:55:33;;;;;;;0.00;0.00;;;;;;;;;;4778549;30;20046;-69
2023/04/26 15:57:59;;;;;;;0.00;0.00;;;;;;;;;;4774792;30;20028;-73
2023/04/26 16:00:25;;;;;;;0.00;0.00;;;;;;;;;;4770545;30;20401;-76
2023/04/26 16:02:51;;;;;;;0.00;0.00;;;;;;;;;;4774308;30;20043;-63
2023/04/26 16:05:18;;;;;;;0.00;0.00;;;;;;;;;;4770388;30;20108;-68
2023/04/26 16:07:44;;;;;;;0.00;0.00;;;;;;;;;;4770361;30;20484;-74
2023/04/26 16:10:10;;;;;;;0.00;0.00;;;;;;;;;;4770090;30;20068;-61
2023/04/26 16:12:38;;;;;;;0.00;0.00;;;;;;;;;;4769818;30;20131;-70
2023/04/26 16:15:08;;;;;;;0.00;0.00;;;;;;;;;;4769969;30;20035;-75
2023/04/26 16:17:36;;;;;;;0.00;0.00;;;;;;;;;;4770951;30;20031;-66
2023/04/26 16:20:05;;;;;;;0.00;0.00;;;;;;;;;;4764685;30;20020;-72
2023/04/26 16:22:32;;;;;;;0.00;0.00;;;;;;;;;;4753761;30;20039;-77
2023/04/26 16:24:58;;;;;;;0.00;0.00;;;;;;;;;;4773631;30;20027;-76
2023/04/26 16:27:26;;;;;;;0.00;0.00;;;;;;;;;;4769933;30;20039;-77
2023/04/26 16:29:52;;;;;;;0.00;0.00;;;;;;;;;;4769837;30;20035;-71
2023/04/26 16:32:18;;;;;;;0.00;0.00;;;;;;;;;;4769782;30;20074;-60
2023/04/26 16:34:44;;;;;;;0.00;0.00;;;;;;;;;;4771345;30;20042;-70
2023/04/26 16:37:10;;;;;;;0.00;0.00;;;;;;;;;;4787705;30;20055;-71
2023/04/26 16:39:36;;;;;;;0.00;0.00;;;;;;;;;;4780593;29;20039;-69
2023/04/26 16:42:03;;;;;;;0.00;0.00;;;;;;;;;;4775151;30;20386;-69
2023/04/26 16:44:29;;;;;;;0.00;0.00;;;;;;;;;;4769491;30;20091;-62
2023/04/26 16:46:55;;;;;;;0.00;0.00;;;;;;;;;;4772857;29;20043;-72
2023/04/26 16:49:21;;;;;;;0.00;0.00;;;;;;;;;;4776522;30;20130;-66
2023/04/26 16:51:52;;;;;;;0.00;0.00;;;;;;;;;;4787022;30;20028;-71
2023/04/26 16:54:19;;;;;;;0.00;0.00;;;;;;;;;;4787236;30;20031;-62
2023/04/26 16:56:45;;;;;;;0.00;0.00;;;;;;;;;;4770929;30;20036;-62
2023/04/26 16:59:11;;;;;;;0.00;0.00;;;;;;;;;;4769493;30;20055;-64
2023/04/26 17:01:37;;;;;;;0.00;0.00;;;;;;;;;;4769363;30;20028;-70
2023/04/26 17:04:03;;;;;;;0.00;0.00;;;;;;;;;;4769137;30;20027;-64
2023/04/26 17:06:30;;;;;;;0.00;0.00;;;;;;;;;;4779399;30;20068;-69
2023/04/26 17:08:56;;;;;;;0.00;0.00;;;;;;;;;;4768678;30;20136;-60
2023/04/26 17:11:22;;;;;;;0.00;0.00;;;;;;;;;;4769049;30;20477;-68
2023/04/26 17:13:48;;;;;;;0.00;0.00;;;;;;;;;;4768833;30;20500;-62
2023/04/26 17:16:14;;;;;;;0.00;0.00;;;;;;;;;;4769014;30;20032;-67
2023/04/26 17:18:40;;;;;;;0.00;0.00;;;;;;;;;;4768894;30;20043;-70
2023/04/26 17:21:07;;;;;;;0.00;0.00;;;;;;;;;;4768804;30;20036;-65
2023/04/26 17:23:33;;;;;;;0.00;0.00;;;;;;;;;;4773327;30;20055;-65
2023/04/26 17:25:59;;;;;;;0.00;0.00;;;;;;;;;;4777743;29;20024;-67
2023/04/26 17:28:25;;;;;;;0.00;0.00;;;;;;;;;;4784187;30;20035;-67
2023/04/26 17:30:51;;;;;;;0.00;0.00;;;;;;;;;;4786552;29;20023;-66
2023/04/26 17:33:18;;;;;;;0.00;0.00;;;;;;;;;;4786457;30;20112;-73
2023/04/26 17:35:45;;;;;;;0.00;0.00;;;;;;;;;;4786746;30;20027;-68
2023/04/26 17:38:12;;;;;;;0.00;0.00;;;;;;;;;;4770514;30;20114;-64
2023/04/26 17:40:38;;;;;;;0.00;0.00;;;;;;;;;;4787885;30;20037;-72
2023/04/26 17:43:04;;;;;;;0.00;0.00;;;;;;;;;;4786434;30;20140;-66
2023/04/26 17:45:30;;;;;;;0.00;0.00;;;;;;;;;;4786472;30;20036;-70
2023/04/26 17:47:56;;;;;;;0.00;0.00;;;;;;;;;;4786411;30;20031;-62
2023/04/26 17:50:22;;;;;;;0.00;0.00;;;;;;;;;;4786363;30;20511;-61
2023/04/26 17:52:49;;;;;;;0.00;0.00;;;;;;;;;;4786215;30;20084;-62
2023/04/26 17:55:15;;;;;;;0.00;0.00;;;;;;;;;;4786363;29;20055;-71
2023/04/26 17:57:41;;;;;;;0.00;0.00;;;;;;;;;;4786246;30;20042;-70
2023/04/26 18:00:09;;;;;;;0.00;0.00;;;;;;;;;;4786302;30;20118;-61
2023/04/26 18:02:36;;;;;;;0.00;0.00;;;;;;;;;;4786205;30;20043;-68
2023/04/26 18:05:02;;;;;;;0.00;0.00;;;;;;;;;;4786275;30;20023;-73
2023/04/26 18:07:28;;;;;;;0.00;0.00;;;;;;;;;;4786259;30;20037;-63
2023/04/26 18:09:54;;;;;;;0.00;0.00;;;;;;;;;;4785835;30;20133;-70
2023/04/26 18:12:20;;;;;;;0.00;0.00;;;;;;;;;;4785905;30;20555;-62
2023/04/26 18:14:46;;;;;;;0.00;0.00;;;;;;;;;;4784703;29;20070;-65
2023/04/26 18:17:13;;;;;;;0.00;0.00;;;;;;;;;;4785783;30;20066;-69
2023/04/26 18:19:40;;;;;;;0.00;0.00;;;;;;;;;;4786212;30;20027;-63
2023/04/26 18:22:06;;;;;;;0.00;0.00;;;;;;;;;;4785966;30;20028;-68
2023/04/26 18:24:32;;;;;;;0.00;0.00;;;;;;;;;;4769375;29;20042;-68
2023/04/26 18:26:59;;;;;;;0.00;0.00;;;;;;;;;;4785913;30;20092;-61
2023/04/26 18:29:26;;;;;;;0.00;0.00;;;;;;;;;;4785610;30;20078;-65
2023/04/26 18:31:53;;;;;;;0.00;0.00;;;;;;;;;;4785834;30;20031;-63
2023/04/26 18:34:19;;;;;;;0.00;0.00;;;;;;;;;;4785922;30;20500;-61
2023/04/26 18:36:45;;;;;;;0.00;0.00;;;;;;;;;;4785797;30;20031;-64
2023/04/26 18:39:11;;;;;;;0.00;0.00;;;;;;;;;;4785883;30;20461;-62
2023/04/26 18:41:37;;;;;;;0.00;0.00;;;;;;;;;;4785717;30;20370;-70
2023/04/26 18:44:13;;;;;;;0.00;0.00;;;;;;;;;;4785763;30;20097;-70
2023/04/26 18:46:39;;;;;;;0.00;0.00;;;;;;;;;;4785680;30;20027;-72
2023/04/26 18:49:06;;;;;;;0.00;0.00;;;;;;;;;;4785501;30;20389;-67
2023/04/26 18:51:32;;;;;;;0.00;0.00;;;;;;;;;;4785599;30;20034;-65
2023/04/26 18:53:58;;;;;;;0.00;0.00;;;;;;;;;;4785213;30;20031;-60
2023/04/26 18:56:24;;;;;;;0.00;0.00;;;;;;;;;;4785667;29;20366;-70
2023/04/26 18:58:50;;;;;;;0.00;0.00;;;;;;;;;;4785559;29;20457;-76
2023/04/26 19:01:16;;;;;;;0.00;0.00;;;;;;;;;;4795157;29;20054;-77
2023/04/26 19:03:43;;;;;;;0.00;0.00;;;;;;;;;;4789995;29;20035;-86
2023/04/26 19:06:13;;;;;;;0.00;0.00;;;;;;;;;;4807944;29;20114;-80
2023/04/26 19:08:39;;;;;;;0.00;0.00;;;;;;;;;;4788409;30;20373;-83
2023/04/26 19:11:07;;;;;;;0.00;0.00;;;;;;;;;;4791368;30;20168;-82
2023/04/26 19:13:33;;;;;;;0.00;0.00;;;;;;;;;;4792158;30;20031;-83
2023/04/26 19:16:01;;;;;;;0.00;0.00;;;;;;;;;;4791383;30;20092;-76
2023/04/26 19:18:27;;;;;;;0.00;0.00;;;;;;;;;;4789781;30;20151;-73
2023/04/26 19:20:53;;;;;;;0.00;0.00;;;;;;;;;;4789336;30;20066;-81
2023/04/26 19:23:19;;;;;;;0.00;0.00;;;;;;;;;;4776758;30;20094;-81
2023/04/26 19:25:45;;;;;;;0.00;0.00;;;;;;;;;;4763398;30;20100;-79
2023/04/26 19:28:11;;;;;;;0.00;0.00;;;;;;;;;;4761421;30;20055;-80
2023/04/26 19:30:38;;;;;;;0.00;0.00;;;;;;;;;;4761545;30;20032;-75
2023/04/26 19:33:04;;;;;;;0.00;0.00;;;;;;;;;;4759957;30;20036;-82
2023/04/26 19:35:30;;;;;;;0.00;0.00;;;;;;;;;;4756916;30;20039;-66
2023/04/26 19:37:56;;;;;;;0.00;0.00;;;;;;;;;;4761551;29;20040;-71
2023/04/26 19:40:22;;;;;;;0.00;0.00;;;;;;;;;;4760602;30;20039;-71
2023/04/26 19:42:49;;;;;;;0.00;0.00;;;;;;;;;;4760268;30;20036;-71
2023/04/26 19:45:19;;;;;;;0.00;0.00;;;;;;;;;;4761886;30;20020;-61
2023/04/26 19:47:45;;;;;;;0.00;0.00;;;;;;;;;;4759657;30;20087;-80
2023/04/26 19:50:11;;;;;;;0.00;0.00;;;;;;;;;;4759406;30;20036;-76